createdAt,value
2019-02-09T00:00:25.719Z,73.29
2019-02-09T00:01:25.759Z,73.19
2019-02-09T00:02:25.696Z,72.98
2019-02-09T00:03:25.694Z,72.78
2019-02-09T00:04:25.676Z,73.19
2019-02-09T00:05:25.669Z,72.78
2019-02-09T00:06:25.663Z,72.67
2019-02-09T00:07:25.644Z,72.36
2019-02-09T00:08:25.645Z,72.98
2019-02-09T00:09:25.630Z,72.67
2019-02-09T00:10:25.618Z,72.47
2019-02-09T00:11:25.642Z,72.57
2019-02-09T00:12:25.593Z,72.36
2019-02-09T00:13:25.580Z,72.16
2019-02-09T00:14:25.587Z,72.05
2019-02-09T00:15:25.575Z,72.05
2019-02-09T00:16:25.554Z,71.64
2019-02-09T00:17:25.542Z,72.05
2019-02-09T00:18:25.537Z,72.26
2019-02-09T00:19:25.546Z,71.84
2019-02-09T00:20:25.504Z,71.33
2019-02-09T00:21:25.494Z,71.40
2019-02-09T00:22:25.483Z,70.67
2019-02-09T00:23:25.536Z,70.78
2019-02-09T00:24:25.461Z,71.50
2019-02-09T00:25:25.450Z,71.33
2019-02-09T00:26:25.436Z,71.19
2019-02-09T00:27:25.428Z,71.19
2019-02-09T00:28:25.419Z,71.19
2019-02-09T00:29:25.438Z,70.57
2019-02-09T00:30:25.430Z,70.57
2019-02-09T00:31:25.387Z,70.19
2019-02-09T00:32:25.371Z,70.09
2019-02-09T00:33:25.366Z,70.06
2019-02-09T00:34:25.362Z,69.74
2019-02-09T00:35:25.343Z,69.74
2019-02-09T00:36:25.330Z,70.16
2019-02-09T00:37:25.316Z,70.57
2019-02-09T00:38:25.306Z,70.06
2019-02-09T00:39:25.373Z,70.09
2019-02-09T00:40:25.301Z,69.74
2019-02-09T00:41:25.272Z,69.85
2019-02-09T00:42:25.266Z,69.64
2019-02-09T00:43:25.262Z,69.54
2019-02-09T00:44:25.240Z,68.71
2019-02-09T00:45:25.245Z,68.61
2019-02-09T00:46:25.224Z,68.92
2019-02-09T00:47:25.213Z,68.30
2019-02-09T00:48:25.199Z,68.58
2019-02-09T00:49:25.189Z,68.09
2019-02-09T00:50:25.186Z,67.65
2019-02-09T00:51:25.185Z,67.65
2019-02-09T00:52:25.158Z,68.06
2019-02-09T00:53:25.146Z,67.68
2019-02-09T00:54:25.137Z,67.75
2019-02-09T00:55:25.133Z,67.58
2019-02-09T00:56:25.119Z,67.03
2019-02-09T00:57:25.130Z,67.27
2019-02-09T00:58:25.086Z,67.47
2019-02-09T00:59:25.080Z,67.44
2019-02-09T01:00:25.076Z,67.37
2019-02-09T01:01:25.069Z,67.58
2019-02-09T01:02:25.044Z,67.54
2019-02-09T01:03:25.040Z,67.68
2019-02-09T01:04:25.031Z,67.44
2019-02-09T01:05:25.043Z,67.44
2019-02-09T01:06:25.006Z,67.44
2019-02-09T01:07:25.001Z,67.03
2019-02-09T01:08:24.983Z,66.82
2019-02-09T01:09:25.031Z,67.06
2019-02-09T01:10:25.016Z,66.96
2019-02-09T01:11:24.982Z,66.82
2019-02-09T01:12:24.969Z,67.03
2019-02-09T01:13:24.928Z,66.41
2019-02-09T01:14:24.940Z,66.44
2019-02-09T01:15:24.932Z,66.93
2019-02-09T01:16:24.918Z,66.93
2019-02-09T01:17:24.898Z,66.82
2019-02-09T01:18:24.876Z,66.72
2019-02-09T01:19:24.878Z,66.41
2019-02-09T01:20:24.870Z,66.41
2019-02-09T01:21:24.861Z,67.03
2019-02-09T01:22:24.836Z,66.61
2019-02-09T01:23:24.828Z,66.72
2019-02-09T01:24:24.809Z,66.41
2019-02-09T01:25:24.868Z,66.54
2019-02-09T01:26:24.784Z,66.82
2019-02-09T01:27:24.807Z,66.61
2019-02-09T01:28:24.778Z,66.61
2019-02-09T01:29:24.759Z,66.61
2019-02-09T01:30:24.747Z,66.85
2019-02-09T01:31:24.742Z,66.82
2019-02-09T01:32:24.737Z,67.06
2019-02-09T01:33:24.707Z,66.23
2019-02-09T01:34:24.705Z,67.13
2019-02-09T01:35:24.692Z,66.33
2019-02-09T01:36:24.689Z,67.06
2019-02-09T01:37:24.663Z,66.75
2019-02-09T01:38:24.683Z,66.44
2019-02-09T01:39:24.646Z,66.54
2019-02-09T01:40:24.637Z,66.75
2019-02-09T01:41:24.658Z,66.85
2019-02-09T01:42:24.614Z,66.85
2019-02-09T01:43:24.604Z,66.85
2019-02-09T01:44:24.592Z,66.64
2019-02-09T01:45:24.580Z,66.85
2019-02-09T01:46:24.571Z,66.85
2019-02-09T01:47:24.568Z,66.75
2019-02-09T01:48:24.546Z,66.67
2019-02-09T01:49:24.535Z,66.75
2019-02-09T01:50:24.533Z,66.75
2019-02-09T01:51:24.544Z,66.85
2019-02-09T01:52:24.500Z,66.85
2019-02-09T01:53:24.494Z,66.75
2019-02-09T01:54:24.482Z,66.44
2019-02-09T01:55:24.472Z,66.75
2019-02-09T01:56:24.492Z,67.06
2019-02-09T01:57:24.450Z,66.85
2019-02-09T01:58:24.436Z,66.75
2019-02-09T01:59:24.425Z,66.75
2019-02-09T02:00:24.422Z,66.75
2019-02-09T02:01:24.406Z,66.85
2019-02-09T02:02:24.425Z,66.57
2019-02-09T02:03:24.381Z,66.75
2019-02-09T02:04:24.376Z,66.85
2019-02-09T02:05:24.365Z,67.19
2019-02-09T02:06:24.347Z,66.36
2019-02-09T02:07:24.367Z,66.96
2019-02-09T02:08:24.328Z,67.06
2019-02-09T02:09:24.320Z,66.88
2019-02-09T02:10:24.330Z,66.64
2019-02-09T02:11:24.303Z,66.67
2019-02-09T02:12:24.315Z,66.67
2019-02-09T02:13:24.277Z,66.88
2019-02-09T02:14:24.267Z,66.67
2019-02-09T02:15:24.254Z,66.47
2019-02-09T02:16:24.247Z,66.57
2019-02-09T02:17:24.253Z,66.67
2019-02-09T02:18:24.254Z,66.67
2019-02-09T02:19:24.212Z,65.95
2019-02-09T02:20:24.202Z,66.06
2019-02-09T02:21:24.188Z,66.13
2019-02-09T02:22:24.173Z,66.03
2019-02-09T02:23:24.168Z,66.54
2019-02-09T02:24:24.170Z,66.23
2019-02-09T02:25:24.141Z,66.54
2019-02-09T02:26:24.133Z,66.85
2019-02-09T02:27:24.119Z,66.33
2019-02-09T02:28:24.139Z,65.92
2019-02-09T02:29:24.103Z,66.06
2019-02-09T02:30:24.102Z,66.03
2019-02-09T02:31:24.117Z,66.26
2019-02-09T02:32:24.072Z,66.36
2019-02-09T02:33:24.056Z,66.57
2019-02-09T02:34:24.108Z,66.47
2019-02-09T02:35:24.032Z,66.36
2019-02-09T02:36:24.022Z,66.23
2019-02-09T02:37:24.082Z,66.16
2019-02-09T02:38:24.005Z,66.06
2019-02-09T02:39:24.003Z,65.95
2019-02-09T02:40:23.979Z,65.95
2019-02-09T02:41:23.972Z,65.75
2019-02-09T02:42:23.966Z,66.06
2019-02-09T02:43:23.944Z,65.75
2019-02-09T02:44:23.964Z,65.85
2019-02-09T02:45:23.926Z,65.72
2019-02-09T02:46:23.919Z,65.85
2019-02-09T02:47:23.906Z,65.44
2019-02-09T02:48:23.902Z,65.75
2019-02-09T02:49:23.901Z,65.85
2019-02-09T02:50:23.868Z,65.44
2019-02-09T02:51:23.899Z,65.44
2019-02-09T02:52:23.852Z,65.54
2019-02-09T02:53:23.837Z,65.64
2019-02-09T02:54:23.829Z,65.64
2019-02-09T02:55:23.876Z,65.23
2019-02-09T02:56:23.877Z,65.44
2019-02-09T02:57:23.838Z,65.33
2019-02-09T02:58:23.786Z,64.81
2019-02-09T02:59:23.769Z,64.71
2019-02-09T03:00:31.866Z,64.71
2019-02-09T03:01:24.799Z,65.23
2019-02-09T03:02:23.744Z,64.81
2019-02-09T03:03:23.734Z,64.61
2019-02-09T03:04:23.715Z,64.71
2019-02-09T03:05:23.707Z,64.92
2019-02-09T03:06:23.699Z,64.81
2019-02-09T03:07:23.726Z,64.71
2019-02-09T03:08:23.673Z,64.61
2019-02-09T03:09:23.660Z,64.30
2019-02-09T03:10:23.650Z,64.92
2019-02-09T03:11:23.654Z,64.20
2019-02-09T03:12:23.710Z,64.20
2019-02-09T03:13:23.616Z,64.81
2019-02-09T03:14:23.611Z,63.68
2019-02-09T03:15:23.603Z,63.89
2019-02-09T03:16:23.590Z,63.44
2019-02-09T03:17:23.576Z,63.47
2019-02-09T03:18:23.575Z,63.78
2019-02-09T03:19:23.554Z,63.54
2019-02-09T03:20:23.546Z,62.72
2019-02-09T03:21:23.530Z,63.23
2019-02-09T03:22:23.523Z,62.82
2019-02-09T03:23:23.528Z,62.51
2019-02-09T03:24:23.505Z,62.82
2019-02-09T03:25:23.486Z,62.62
2019-02-09T03:26:23.473Z,62.10
2019-02-09T03:27:23.467Z,62.10
2019-02-09T03:28:23.487Z,61.99
2019-02-09T03:29:23.447Z,62.30
2019-02-09T03:30:23.435Z,62.30
2019-02-09T03:31:23.423Z,62.48
2019-02-09T03:32:23.409Z,61.99
2019-02-09T03:33:23.474Z,61.45
2019-02-09T03:34:23.387Z,61.55
2019-02-09T03:35:23.382Z,61.55
2019-02-09T03:36:23.363Z,61.58
2019-02-09T03:37:23.353Z,61.45
2019-02-09T03:38:23.345Z,60.93
2019-02-09T03:39:23.365Z,60.83
2019-02-09T03:40:23.329Z,60.93
2019-02-09T03:41:23.313Z,60.83
2019-02-09T03:42:23.302Z,60.83
2019-02-09T03:43:23.292Z,61.14
2019-02-09T03:44:23.316Z,60.80
2019-02-09T03:45:23.284Z,60.63
2019-02-09T03:46:23.255Z,60.93
2019-02-09T03:47:23.242Z,60.70
2019-02-09T03:48:23.233Z,60.39
2019-02-09T03:49:23.221Z,60.00
2019-02-09T03:50:23.239Z,60.42
2019-02-09T03:51:23.207Z,60.18
2019-02-09T03:52:23.190Z,60.00
2019-02-09T03:53:23.183Z,60.28
2019-02-09T03:54:23.171Z,60.39
2019-02-09T03:55:23.170Z,59.88
2019-02-09T03:56:23.155Z,60.08
2019-02-09T03:57:23.139Z,59.88
2019-02-09T03:58:23.127Z,59.88
2019-02-09T03:59:23.114Z,60.08
2019-02-09T04:00:23.121Z,59.77
2019-02-09T04:01:23.123Z,59.98
2019-02-09T04:02:23.083Z,59.88
2019-02-09T04:03:23.073Z,59.64
2019-02-09T04:04:23.058Z,59.67
2019-02-09T04:05:23.049Z,59.02
2019-02-09T04:06:23.066Z,59.44
2019-02-09T04:07:23.038Z,59.33
2019-02-09T04:08:23.035Z,59.64
2019-02-09T04:09:23.006Z,59.23
2019-02-09T04:10:23.000Z,58.71
2019-02-09T04:11:23.026Z,58.40
2019-02-09T04:12:23.014Z,58.50
2019-02-09T04:13:23.005Z,59.12
2019-02-09T04:14:22.949Z,59.02
2019-02-09T04:15:22.942Z,58.92
2019-02-09T04:16:22.929Z,58.81
2019-02-09T04:17:22.984Z,58.61
2019-02-09T04:18:22.910Z,58.92
2019-02-09T04:19:22.902Z,58.92
2019-02-09T04:20:22.908Z,58.61
2019-02-09T04:21:22.881Z,58.61
2019-02-09T04:22:22.862Z,58.61
2019-02-09T04:23:22.866Z,58.50
2019-02-09T04:24:22.839Z,58.50
2019-02-09T04:25:22.835Z,58.71
2019-02-09T04:26:22.820Z,58.92
2019-02-09T04:27:22.807Z,58.61
2019-02-09T04:28:22.820Z,58.92
2019-02-09T04:29:22.791Z,58.40
2019-02-09T04:30:22.789Z,58.48
2019-02-09T04:31:22.769Z,58.37
2019-02-09T04:32:22.761Z,58.61
2019-02-09T04:33:22.788Z,58.79
2019-02-09T04:34:22.736Z,58.40
2019-02-09T04:35:22.747Z,58.27
2019-02-09T04:36:22.715Z,58.40
2019-02-09T04:37:22.702Z,58.30
2019-02-09T04:38:22.723Z,58.30
2019-02-09T04:39:22.679Z,58.37
2019-02-09T04:40:22.671Z,58.58
2019-02-09T04:41:22.661Z,58.48
2019-02-09T04:42:22.643Z,57.89
2019-02-09T04:43:22.640Z,57.65
2019-02-09T04:44:22.642Z,57.65
2019-02-09T04:45:22.611Z,57.65
2019-02-09T04:46:22.601Z,58.58
2019-02-09T04:47:22.593Z,57.99
2019-02-09T04:48:22.583Z,58.17
2019-02-09T04:49:22.619Z,57.45
2019-02-09T04:50:22.561Z,57.55
2019-02-09T04:51:22.551Z,57.37
2019-02-09T04:52:22.568Z,57.86
2019-02-09T04:53:22.532Z,57.45
2019-02-09T04:54:22.516Z,57.55
2019-02-09T04:55:22.553Z,57.76
2019-02-09T04:56:22.532Z,57.45
2019-02-09T04:57:22.481Z,58.17
2019-02-09T04:58:22.467Z,58.17
2019-02-09T04:59:22.462Z,58.17
2019-02-09T05:00:22.446Z,57.45
2019-02-09T05:01:22.461Z,57.55
2019-02-09T05:02:22.426Z,57.86
2019-02-09T05:03:22.415Z,57.34
2019-02-09T05:04:22.413Z,57.34
2019-02-09T05:05:22.398Z,57.55
2019-02-09T05:06:22.395Z,57.55
2019-02-09T05:07:22.369Z,57.24
2019-02-09T05:08:22.364Z,57.45
2019-02-09T05:09:22.347Z,57.45
2019-02-09T05:10:22.343Z,57.86
2019-02-09T05:11:22.362Z,57.45
2019-02-09T05:12:22.315Z,57.55
2019-02-09T05:13:22.310Z,57.62
2019-02-09T05:14:22.294Z,58.04
2019-02-09T05:15:22.290Z,57.73
2019-02-09T05:16:22.277Z,57.93
2019-02-09T05:17:22.304Z,57.93
2019-02-09T05:18:22.255Z,58.04
2019-02-09T05:19:22.287Z,57.93
2019-02-09T05:20:22.228Z,57.93
2019-02-09T05:21:22.223Z,57.93
2019-02-09T05:22:22.211Z,57.73
2019-02-09T05:23:22.194Z,57.52
2019-02-09T05:24:22.195Z,57.52
2019-02-09T05:25:22.185Z,57.42
2019-02-09T05:26:22.168Z,57.62
2019-02-09T05:27:22.151Z,57.42
2019-02-09T05:28:22.141Z,57.52
2019-02-09T05:29:22.205Z,57.42
2019-02-09T05:30:22.122Z,57.11
2019-02-09T05:31:23.539Z,57.32
2019-02-09T05:32:22.101Z,57.42
2019-02-09T05:33:22.093Z,57.01
2019-02-09T05:34:22.083Z,58.04
2019-02-09T05:35:22.089Z,58.04
2019-02-09T05:36:22.060Z,58.25
2019-02-09T05:37:22.044Z,58.14
2019-02-09T05:38:22.118Z,58.25
2019-02-09T05:39:22.022Z,58.86
2019-02-09T05:40:22.015Z,58.65
2019-02-09T05:41:21.995Z,58.86
2019-02-09T05:42:21.986Z,58.55
2019-02-09T05:43:21.975Z,58.76
2019-02-09T05:44:22.006Z,58.65
2019-02-09T05:45:21.959Z,59.38
2019-02-09T05:46:21.947Z,59.38
2019-02-09T05:47:21.929Z,59.89
2019-02-09T05:48:21.924Z,59.79
2019-02-09T05:49:21.924Z,60.00
2019-02-09T05:50:21.906Z,60.82
2019-02-09T05:51:21.887Z,62.06
2019-02-09T05:52:21.880Z,62.37
2019-02-09T05:53:21.869Z,62.16
2019-02-09T05:54:21.858Z,62.06
2019-02-09T05:55:21.869Z,62.08
2019-02-09T05:56:21.837Z,62.08
2019-02-09T05:57:21.820Z,63.32
2019-02-09T05:58:21.810Z,62.47
2019-02-09T05:59:21.846Z,63.12
2019-02-09T06:00:21.796Z,63.74
2019-02-09T06:01:21.793Z,63.53
2019-02-09T06:02:21.774Z,62.50
2019-02-09T06:03:21.756Z,62.50
2019-02-09T06:04:21.744Z,63.12
2019-02-09T06:05:21.775Z,63.22
2019-02-09T06:06:21.722Z,63.64
2019-02-09T06:07:21.717Z,63.53
2019-02-09T06:08:21.705Z,63.43
2019-02-09T06:09:21.695Z,63.53
2019-02-09T06:10:21.678Z,64.56
2019-02-09T06:11:21.691Z,64.56
2019-02-09T06:12:21.665Z,64.98
2019-02-09T06:13:21.677Z,66.24
2019-02-09T06:14:21.641Z,66.63
2019-02-09T06:15:21.625Z,66.55
2019-02-09T06:16:21.658Z,67.17
2019-02-09T06:17:21.604Z,67.69
2019-02-09T06:18:21.597Z,68.93
2019-02-09T06:19:21.580Z,69.37
2019-02-09T06:20:21.570Z,71.12
2019-02-09T06:21:21.570Z,72.88
2019-02-09T06:22:21.553Z,73.60
2019-02-09T06:23:21.544Z,73.22
2019-02-09T06:24:21.532Z,74.15
2019-02-09T06:25:21.525Z,76.01
2019-02-09T06:26:21.542Z,76.94
2019-02-09T06:27:21.499Z,77.08
2019-02-09T06:28:21.481Z,78.53
2019-02-09T06:29:21.473Z,77.50
2019-02-09T06:30:21.465Z,77.64
2019-02-09T06:31:21.450Z,78.01
2019-02-09T06:32:21.464Z,77.50
2019-02-09T06:33:21.436Z,78.25
2019-02-09T06:34:21.421Z,80.11
2019-02-09T06:35:21.410Z,78.88
2019-02-09T06:36:21.396Z,78.46
2019-02-09T06:37:21.426Z,78.46
2019-02-09T06:38:21.379Z,78.88
2019-02-09T06:39:21.366Z,78.77
2019-02-09T06:40:21.361Z,77.84
2019-02-09T06:41:21.339Z,78.46
2019-02-09T06:42:21.332Z,78.05
2019-02-09T06:43:21.347Z,78.63
2019-02-09T06:44:21.305Z,78.05
2019-02-09T06:45:21.299Z,78.56
2019-02-09T06:46:21.284Z,78.46
2019-02-09T06:47:21.277Z,78.22
2019-02-09T06:48:21.291Z,78.01
2019-02-09T06:49:21.254Z,77.64
2019-02-09T06:50:21.246Z,78.56
2019-02-09T06:51:21.230Z,77.50
2019-02-09T06:52:21.217Z,77.60
2019-02-09T06:53:21.221Z,78.32
2019-02-09T06:54:21.200Z,77.64
2019-02-09T06:55:21.188Z,77.29
2019-02-09T06:56:21.179Z,78.22
2019-02-09T06:57:21.168Z,77.39
2019-02-09T06:58:21.178Z,77.29
2019-02-09T06:59:21.148Z,76.77
2019-02-09T07:00:21.134Z,77.29
2019-02-09T07:01:21.126Z,76.87
2019-02-09T07:02:21.115Z,77.29
2019-02-09T07:03:21.101Z,77.39
2019-02-09T07:04:21.117Z,77.19
2019-02-09T07:05:21.084Z,77.29
2019-02-09T07:06:21.064Z,76.98
2019-02-09T07:07:21.054Z,78.22
2019-02-09T07:08:21.042Z,77.60
2019-02-09T07:09:21.093Z,77.98
2019-02-09T07:10:21.024Z,77.91
2019-02-09T07:11:21.020Z,78.11
2019-02-09T07:12:20.999Z,79.66
2019-02-09T07:13:20.991Z,78.01
2019-02-09T07:14:20.980Z,78.42
2019-02-09T07:15:21.010Z,79.05
2019-02-09T07:16:20.954Z,78.94
2019-02-09T07:17:20.945Z,78.22
2019-02-09T07:18:20.939Z,79.25
2019-02-09T07:19:20.919Z,78.84
2019-02-09T07:20:20.916Z,79.01
2019-02-09T07:21:20.928Z,78.01
2019-02-09T07:22:20.892Z,79.46
2019-02-09T07:23:20.883Z,79.11
2019-02-09T07:24:20.866Z,79.32
2019-02-09T07:25:20.855Z,80.39
2019-02-09T07:26:20.914Z,81.01
2019-02-09T07:27:20.833Z,81.42
2019-02-09T07:28:20.830Z,83.49
2019-02-09T07:29:20.816Z,83.18
2019-02-09T07:30:20.802Z,84.52
2019-02-09T07:31:20.855Z,84.15
2019-02-09T07:32:20.787Z,84.66
2019-02-09T07:33:20.773Z,85.91
2019-02-09T07:34:20.764Z,85.70
2019-02-09T07:35:20.751Z,85.49
2019-02-09T07:36:20.739Z,86.32
2019-02-09T07:37:20.775Z,86.32
2019-02-09T07:38:20.716Z,86.01
2019-02-09T07:39:20.701Z,86.11
2019-02-09T07:40:20.694Z,86.42
2019-02-09T07:41:20.680Z,86.21
2019-02-09T07:42:20.690Z,86.11
2019-02-09T07:43:20.660Z,86.42
2019-02-09T07:44:20.650Z,85.80
2019-02-09T07:45:20.641Z,87.25
2019-02-09T07:46:20.659Z,86.83
2019-02-09T07:47:20.620Z,86.94
2019-02-09T07:48:20.633Z,87.66
2019-02-09T07:49:20.598Z,89.22
2019-02-09T07:50:20.579Z,88.39
2019-02-09T07:51:20.570Z,89.01
2019-02-09T07:52:20.622Z,89.42
2019-02-09T07:53:20.548Z,90.14
2019-02-09T07:54:20.535Z,89.73
2019-02-09T07:55:20.529Z,89.52
2019-02-09T07:56:20.516Z,89.62
2019-02-09T07:57:20.510Z,90.25
2019-02-09T07:58:20.557Z,90.45
2019-02-09T07:59:20.484Z,90.35
2019-02-09T08:00:20.475Z,89.52
2019-02-09T08:01:20.462Z,89.52
2019-02-09T08:02:20.447Z,89.42
2019-02-09T08:03:20.443Z,90.35
2019-02-09T08:04:20.455Z,90.66
2019-02-09T08:05:20.416Z,89.73
2019-02-09T08:06:20.408Z,89.52
2019-02-09T08:07:20.392Z,90.04
2019-02-09T08:08:20.383Z,90.72
2019-02-09T08:09:20.385Z,91.49
2019-02-09T08:10:20.357Z,91.49
2019-02-09T08:11:20.402Z,91.69
2019-02-09T08:12:20.342Z,93.14
2019-02-09T08:13:20.325Z,93.35
2019-02-09T08:14:20.333Z,92.72
2019-02-09T08:15:20.310Z,93.14
2019-02-09T08:16:20.292Z,93.70
2019-02-09T08:17:20.285Z,93.39
2019-02-09T08:18:20.326Z,93.91
2019-02-09T08:19:20.311Z,93.04
2019-02-09T08:20:20.247Z,92.63
2019-02-09T08:21:20.237Z,93.24
2019-02-09T08:22:20.226Z,93.04
2019-02-09T08:23:20.216Z,92.72
2019-02-09T08:24:20.204Z,92.42
2019-02-09T08:25:20.256Z,92.52
2019-02-09T08:26:20.190Z,92.32
2019-02-09T08:27:23.593Z,92.48
2019-02-09T08:28:20.165Z,91.86
2019-02-09T08:29:20.150Z,91.96
2019-02-09T08:30:20.137Z,91.13
2019-02-09T08:31:20.174Z,90.72
2019-02-09T08:32:20.116Z,90.52
2019-02-09T08:33:20.114Z,89.54
2019-02-09T08:34:20.093Z,90.16
2019-02-09T08:35:20.088Z,90.26
2019-02-09T08:36:20.103Z,90.26
2019-02-09T08:37:20.062Z,90.16
2019-02-09T08:38:20.051Z,89.75
2019-02-09T08:39:20.040Z,89.50
2019-02-09T08:40:20.034Z,89.71
2019-02-09T08:41:20.032Z,88.92
2019-02-09T08:42:20.005Z,88.57
2019-02-09T08:43:19.996Z,88.51
2019-02-09T08:44:19.990Z,88.57
2019-02-09T08:45:19.981Z,88.78
2019-02-09T08:46:19.994Z,88.78
2019-02-09T08:47:19.956Z,88.51
2019-02-09T08:48:19.957Z,88.47
2019-02-09T08:49:19.933Z,88.37
2019-02-09T08:50:19.924Z,89.29
2019-02-09T08:51:19.910Z,88.68
2019-02-09T08:52:20.030Z,88.06
2019-02-09T08:53:19.936Z,87.85
2019-02-09T08:54:19.910Z,87.74
2019-02-09T08:55:19.881Z,87.54
2019-02-09T08:56:19.856Z,86.88
2019-02-09T08:57:19.856Z,86.88
2019-02-09T08:58:19.842Z,86.78
2019-02-09T08:59:19.822Z,86.57
2019-02-09T09:00:19.810Z,86.68
2019-02-09T09:01:19.800Z,86.05
2019-02-09T09:02:20.822Z,85.95
2019-02-09T09:03:19.789Z,84.99
2019-02-09T09:04:19.779Z,86.05
2019-02-09T09:05:19.762Z,85.19
2019-02-09T09:06:19.753Z,85.05
2019-02-09T09:07:19.741Z,84.29
2019-02-09T09:08:19.929Z,83.22
2019-02-09T09:09:19.714Z,81.84
2019-02-09T09:10:19.707Z,81.60
2019-02-09T09:11:19.697Z,80.88
2019-02-09T09:12:19.684Z,80.88
2019-02-09T09:13:19.676Z,80.26
2019-02-09T09:14:19.668Z,78.99
2019-02-09T09:15:19.655Z,78.99
2019-02-09T09:16:19.640Z,78.33
2019-02-09T09:17:19.629Z,77.92
2019-02-09T09:18:19.613Z,77.27
2019-02-09T09:19:19.651Z,76.28
2019-02-09T09:20:19.598Z,75.76
2019-02-09T09:21:19.587Z,75.11
2019-02-09T09:22:19.600Z,74.19
2019-02-09T09:23:19.567Z,73.68
2019-02-09T09:24:19.556Z,72.51
2019-02-09T09:25:19.548Z,73.30
2019-02-09T09:26:19.532Z,72.24
2019-02-09T09:27:19.517Z,72.14
2019-02-09T09:28:19.510Z,70.60
2019-02-09T09:29:19.502Z,70.26
2019-02-09T09:30:19.499Z,69.75
2019-02-09T09:31:19.472Z,69.85
2019-02-09T09:32:19.465Z,69.03
2019-02-09T09:33:19.455Z,69.85
2019-02-09T09:34:19.445Z,69.57
2019-02-09T09:35:19.435Z,70.40
2019-02-09T09:36:19.426Z,69.85
2019-02-09T09:37:19.414Z,70.87
2019-02-09T09:38:19.396Z,68.93
2019-02-09T09:39:19.391Z,68.01
2019-02-09T09:40:19.378Z,68.28
2019-02-09T09:41:19.377Z,67.94
2019-02-09T09:42:19.349Z,67.43
2019-02-09T09:43:19.345Z,67.26
2019-02-09T09:44:19.333Z,68.41
2019-02-09T09:45:19.319Z,68.11
2019-02-09T09:46:19.317Z,69.06
2019-02-09T09:47:19.296Z,69.17
2019-02-09T09:48:19.284Z,69.17
2019-02-09T09:49:19.273Z,69.17
2019-02-09T09:50:19.269Z,69.17
2019-02-09T09:51:19.268Z,67.90
2019-02-09T09:52:19.246Z,67.29
2019-02-09T09:53:19.231Z,67.70
2019-02-09T09:54:19.224Z,68.18
2019-02-09T09:55:19.214Z,67.16
2019-02-09T09:56:19.233Z,66.54
2019-02-09T09:57:19.191Z,67.16
2019-02-09T09:58:19.184Z,68.01
2019-02-09T09:59:19.163Z,68.21
2019-02-09T10:00:19.153Z,67.77
2019-02-09T10:01:19.148Z,66.72
2019-02-09T10:02:19.140Z,65.77
2019-02-09T10:03:19.138Z,65.36
2019-02-09T10:04:19.115Z,65.05
2019-02-09T10:05:19.106Z,64.81
2019-02-09T10:06:19.093Z,64.40
2019-02-09T10:07:19.091Z,64.68
2019-02-09T10:08:19.077Z,63.86
2019-02-09T10:09:19.058Z,63.43
2019-02-09T10:10:19.050Z,62.71
2019-02-09T10:11:19.034Z,62.92
2019-02-09T10:12:19.027Z,61.66
2019-02-09T10:13:19.022Z,61.58
2019-02-09T10:14:19.029Z,61.99
2019-02-09T10:15:18.988Z,61.38
2019-02-09T10:16:18.982Z,61.46
2019-02-09T10:17:18.966Z,61.83
2019-02-09T10:18:18.966Z,60.92
2019-02-09T10:19:18.955Z,60.21
2019-02-09T10:20:18.946Z,60.48
2019-02-09T10:21:18.951Z,59.46
2019-02-09T10:22:18.913Z,59.36
2019-02-09T10:23:18.905Z,58.51
2019-02-09T10:24:18.896Z,58.41
2019-02-09T10:25:18.949Z,57.93
2019-02-09T10:26:18.872Z,58.11
2019-02-09T10:27:18.857Z,57.73
2019-02-09T10:28:18.854Z,58.03
2019-02-09T10:29:18.840Z,58.14
2019-02-09T10:30:18.836Z,57.90
2019-02-09T10:31:18.931Z,57.80
2019-02-09T10:32:18.811Z,57.80
2019-02-09T10:33:18.799Z,57.57
2019-02-09T10:34:18.791Z,56.96
2019-02-09T10:35:18.777Z,56.55
2019-02-09T10:36:18.812Z,56.29
2019-02-09T10:37:18.794Z,55.48
2019-02-09T10:38:18.750Z,55.48
2019-02-09T10:39:18.732Z,54.31
2019-02-09T10:40:18.720Z,54.33
2019-02-09T10:41:18.717Z,55.05
2019-02-09T10:42:18.702Z,53.88
2019-02-09T10:43:18.684Z,52.63
2019-02-09T10:44:18.671Z,53.24
2019-02-09T10:45:18.662Z,52.91
2019-02-09T10:46:18.654Z,52.10
2019-02-09T10:47:18.677Z,51.21
2019-02-09T10:48:18.632Z,50.88
2019-02-09T10:49:18.625Z,50.98
2019-02-09T10:50:18.609Z,51.18
2019-02-09T10:51:18.593Z,50.78
2019-02-09T10:52:19.166Z,50.27
2019-02-09T10:53:18.587Z,49.23
2019-02-09T10:54:18.565Z,49.95
2019-02-09T10:55:18.554Z,49.72
2019-02-09T10:56:18.544Z,48.58
2019-02-09T10:57:18.527Z,47.87
2019-02-09T10:58:18.534Z,48.30
2019-02-09T10:59:18.511Z,49.16
2019-02-09T11:00:18.500Z,51.97
2019-02-09T11:01:18.488Z,52.22
2019-02-09T11:02:18.475Z,53.24
2019-02-09T11:03:18.518Z,51.14
2019-02-09T11:04:18.455Z,49.91
2019-02-09T11:05:18.442Z,49.99
2019-02-09T11:06:18.435Z,51.36
2019-02-09T11:07:18.417Z,50.95
2019-02-09T11:08:18.408Z,50.87
2019-02-09T11:09:18.405Z,52.66
2019-02-09T11:10:18.385Z,52.83
2019-02-09T11:11:18.374Z,51.51
2019-02-09T11:12:18.371Z,52.25
2019-02-09T11:13:18.355Z,53.42
2019-02-09T11:14:18.356Z,54.33
2019-02-09T11:15:18.328Z,53.44
2019-02-09T11:16:18.321Z,52.73
2019-02-09T11:17:18.316Z,51.72
2019-02-09T11:18:18.296Z,53.16
2019-02-09T11:19:18.321Z,52.12
2019-02-09T11:20:18.282Z,52.09
2019-02-09T11:21:18.267Z,53.42
2019-02-09T11:22:18.260Z,54.05
2019-02-09T11:23:18.239Z,54.39
2019-02-09T11:24:18.229Z,54.08
2019-02-09T11:25:18.257Z,54.51
2019-02-09T11:26:18.211Z,55.23
2019-02-09T11:27:18.201Z,54.82
2019-02-09T11:28:18.193Z,53.77
2019-02-09T11:29:18.175Z,54.92
2019-02-09T11:30:18.168Z,55.54
2019-02-09T11:31:18.165Z,54.51
2019-02-09T11:32:18.145Z,54.67
2019-02-09T11:33:18.131Z,54.79
2019-02-09T11:34:18.122Z,54.41
2019-02-09T11:35:18.128Z,54.13
2019-02-09T11:36:18.100Z,54.95
2019-02-09T11:37:18.092Z,55.56
2019-02-09T11:38:18.074Z,55.38
2019-02-09T11:39:18.066Z,56.10
2019-02-09T11:40:18.068Z,54.97
2019-02-09T11:41:18.044Z,55.49
2019-02-09T11:42:18.045Z,54.36
2019-02-09T11:43:18.026Z,54.57
2019-02-09T11:44:18.015Z,54.64
2019-02-09T11:45:17.998Z,54.77
2019-02-09T11:46:18.002Z,55.58
2019-02-09T11:47:17.983Z,56.30
2019-02-09T11:48:17.977Z,55.38
2019-02-09T11:49:17.959Z,55.30
2019-02-09T11:50:17.948Z,55.99
2019-02-09T11:51:18.615Z,55.62
2019-02-09T11:52:17.924Z,56.02
2019-02-09T11:53:17.923Z,56.12
2019-02-09T11:54:17.902Z,55.82
2019-02-09T11:55:17.889Z,55.92
2019-02-09T11:56:17.888Z,53.83
2019-02-09T11:57:17.867Z,54.59
2019-02-09T11:58:17.896Z,53.34
2019-02-09T11:59:17.847Z,52.29
2019-02-09T12:00:17.839Z,51.76
2019-02-09T12:01:17.829Z,52.01
2019-02-09T12:02:17.818Z,52.62
2019-02-09T12:03:18.325Z,52.29
2019-02-09T12:04:17.795Z,51.35
2019-02-09T12:05:17.780Z,50.39
2019-02-09T12:06:17.780Z,49.15
2019-02-09T12:07:17.771Z,48.19
2019-02-09T12:08:17.764Z,46.64
2019-02-09T12:09:17.741Z,46.33
2019-02-09T12:10:17.732Z,46.66
2019-02-09T12:11:17.717Z,47.82
2019-02-09T12:12:17.708Z,49.90
2019-02-09T12:13:17.703Z,50.44
2019-02-09T12:14:17.686Z,51.17
2019-02-09T12:15:17.674Z,51.51
2019-02-09T12:16:17.664Z,51.61
2019-02-09T12:17:17.667Z,51.71
2019-02-09T12:18:18.399Z,51.51
2019-02-09T12:19:17.624Z,52.25
2019-02-09T12:20:17.615Z,52.55
2019-02-09T12:21:17.602Z,52.55
2019-02-09T12:22:17.596Z,52.88
2019-02-09T12:23:17.602Z,52.47
2019-02-09T12:24:17.574Z,54.03
2019-02-09T12:25:17.583Z,56.07
2019-02-09T12:26:17.553Z,56.68
2019-02-09T12:27:17.542Z,57.73
2019-02-09T12:28:17.539Z,58.25
2019-02-09T12:29:17.516Z,58.07
2019-02-09T12:30:17.510Z,58.40
2019-02-09T12:31:17.510Z,59.42
2019-02-09T12:32:17.485Z,59.53
2019-02-09T12:33:23.244Z,60.03
2019-02-09T12:34:18.461Z,60.58
2019-02-09T12:35:17.459Z,60.75
2019-02-09T12:36:17.444Z,60.47
2019-02-09T12:37:17.428Z,60.78
2019-02-09T12:38:17.428Z,61.01
2019-02-09T12:39:17.411Z,61.22
2019-02-09T12:40:17.397Z,61.11
2019-02-09T12:41:17.393Z,59.83
2019-02-09T12:42:17.378Z,59.60
2019-02-09T12:43:17.367Z,58.91
2019-02-09T12:44:17.376Z,59.35
2019-02-09T12:45:17.346Z,59.35
2019-02-09T12:46:17.356Z,58.84
2019-02-09T12:47:17.329Z,59.07
2019-02-09T12:48:17.307Z,58.86
2019-02-09T12:49:17.302Z,58.76
2019-02-09T12:50:17.308Z,57.23
2019-02-09T12:51:17.279Z,57.64
2019-02-09T12:52:17.281Z,56.71